Carlock, IL (61725)

3:07 AM CST on February 22, 2017 (GMT -0600)
MD9668 | | Change Station
Active Advisory: Dense Fog Advisory

Elev 803 ft 40.53 °N, 89.17 °W | Updated 20 minutes ago

Fog
Fog
48.0 °F
Feels Like 48 °F
N
0.0
Wind Variable Wind from SE
Gusts 0.0 mph

Today
High -- | Low -- °F
--% Chance of Precip.
Yesterday
High -- | Low -- °F
Precip. -- in
Pressure 29.87 in
Visibility 0.5 miles
Clouds
Windchill 48 °F
Dew Point 47 °F
Humidity 97%
Rainfall 0.15 in
Snow Depth Not available.
6:40 AM 5:40 PM
Waning Crescent, 19% visible
SPECI KBMI 220901Z AUTO 20007KT 1/2SM R20/P6000FT FG VV004 09/08 A2987 RMK AO2
Pressure 29.87 in
Visibility 0.5 miles
Clouds
Windchill 48 °F
Dew Point 47 °F
Humidity 97%
Rainfall 0.15 in
Snow Depth Not available.
6:40 AM 5:40 PM
Waning Crescent, 19% visible
SPECI KBMI 220901Z AUTO 20007KT 1/2SM R20/P6000FT FG VV004 09/08 A2987 RMK AO2

Get Your Daily Forecast Email!

Thanks for signing up!

Be on the lookout for a verification email in your inbox.

You'll start receiving the daily forecast at 8 AM.

×

10-Day Weather Forecast

Almanac

Astronomy

Feb. 22, 2017 Rise Set
Actual Time
Civil Twilight
Nautical Twilight
Astronomical Twilight
Moon
Length of Visible Light
Length of Day
Tomorrow will be .
, % of the Moon is Illuminated

Today's Extremes

State Highs State Lows

Community

WunderPhotos

Upload Photos

1,962,540 photos uploaded!

WunderBlog® & News

Nearby

Air Quality

  Air Quality AQ Index Pollutant
Not available.

Snow Depth

Station Depth Elevation

Earthquake Activity

City Distance Mag. Time & Date
Minimum magnitude displayed is 2.5.

Coastal Water Temperatures

Place Temperature

Stations

Nearby Weather Stations

Station Location Temp. Windchill Dew Point Humidity Wind Precip. Elev Updated Type
                   

Watches & Warnings

Dense Fog Advisory
Issued: 10:51 PM CST Feb. 21, 2017 – National Weather Service

... Dense fog advisory in effect until 9 am CST Wednesday...

The National Weather Service in Lincoln has issued a dense fog
advisory... which is in effect until 9 am CST Wednesday.

* Visibility... will continue to degrade overnight, frequently
falling below one quarter mile at times.

* Impacts... areas of low visibility and rapid changes in visibility
will cause hazardous driving conditions.

Precautionary/preparedness actions...

A dense fog advisory means visibilities will frequently be
reduced to less than one quarter mile. If driving... slow down...
use your headlights... and leave plenty of distance ahead of you.



Bak